< < Back
Terminal Aerodrome Forecast


Current Version              Previous Versions:   1  2  3  4  5  6  7  8  9  

Terminal Aerodrome Forecast

549
FTUS42 KFFC 241602 AAD
TAFATL
TAF AMD
KATL 241602Z 2416/2518 29005KT P6SM SCT250
     FM241800 25007KT P6SM FEW050
     FM250000 22004KT P6SM FEW250
     FM251500 21005KT P6SM FEW040=



Latest METAR

256
SAUS70 KWBC 241700 RRC
MTRATL
METAR KATL 241652Z VRB03KT 10SM FEW065 SCT250 BKN300 27/11 A3017 RMK AO2
SLP207 T02720111


USA.gov is the U.S. government's official web portal to all federal, state and local government web resources and services.